Time;durP1;ratioP1;P1;durP2;ratioP2;P2;SDS_P1;SDS_P2;PMS_P1;PMS_P2;Temp;Humidity;BMP_temperature;BMP_pressure;BME280_temperature;BME280_humidity;BME280_pressure;Samples;Min_cycle;Max_cycle;Signal;HPM_P1;HPM_P2
2020/12/10 00:01:16;;;;;;;44.80;22.87;;;;;;;;;;5057777;28;20037;-82
2020/12/10 00:03:42;;;;;;;49.40;24.57;;;;;;;;;;5041260;28;20013;-83
2020/12/10 00:06:11;;;;;;;53.97;23.37;;;;;;;;;;5041754;28;20032;-85
2020/12/10 00:08:37;;;;;;;47.13;21.40;;;;;;;;;;5040659;28;20006;-84
2020/12/10 00:11:03;;;;;;;48.03;24.00;;;;;;;;;;5035311;28;20032;-82
2020/12/10 00:13:29;;;;;;;54.63;25.50;;;;;;;;;;5016538;28;20392;-84
2020/12/10 00:15:55;;;;;;;47.87;26.47;;;;;;;;;;5033383;28;20033;-82
2020/12/10 00:18:21;;;;;;;55.80;28.57;;;;;;;;;;5029421;28;20112;-82
2020/12/10 00:20:47;;;;;;;54.63;28.23;;;;;;;;;;5029487;28;20038;-83
2020/12/10 00:23:13;;;;;;;59.83;29.67;;;;;;;;;;5046928;28;20029;-83
2020/12/10 00:25:41;;;;;;;56.30;29.87;;;;;;;;;;5030257;28;20026;-82
2020/12/10 00:28:07;;;;;;;51.47;25.73;;;;;;;;;;5030491;28;20033;-83
2020/12/10 00:30:33;;;;;;;51.90;26.03;;;;;;;;;;5050360;28;20048;-83
2020/12/10 00:32:59;;;;;;;48.90;25.23;;;;;;;;;;5050313;28;20053;-84
2020/12/10 00:35:25;;;;;;;41.50;20.73;;;;;;;;;;5054680;28;20026;-84
2020/12/10 00:37:51;;;;;;;48.00;23.17;;;;;;;;;;5038365;28;20060;-84
2020/12/10 00:40:17;;;;;;;41.77;23.07;;;;;;;;;;5039126;28;20029;-82
2020/12/10 00:42:43;;;;;;;50.77;26.63;;;;;;;;;;5039658;28;20006;-83
2020/12/10 00:45:09;;;;;;;40.23;20.10;;;;;;;;;;5054284;28;20026;-83
2020/12/10 00:47:35;;;;;;;37.73;18.83;;;;;;;;;;5038937;28;20026;-83
2020/12/10 00:50:01;;;;;;;40.50;21.83;;;;;;;;;;5039578;28;20025;-86
2020/12/10 00:52:27;;;;;;;42.13;23.90;;;;;;;;;;5056458;28;20013;-86
2020/12/10 00:54:54;;;;;;;33.90;17.13;;;;;;;;;;5038459;28;20009;-84
2020/12/10 00:57:20;;;;;;;35.57;20.53;;;;;;;;;;5037971;28;20033;-84
2020/12/10 00:59:46;;;;;;;50.17;26.47;;;;;;;;;;5032699;28;20037;-83
2020/12/10 01:02:12;;;;;;;44.43;24.93;;;;;;;;;;5036035;28;20028;-84
2020/12/10 01:04:38;;;;;;;44.20;24.40;;;;;;;;;;5036114;28;20032;-83
2020/12/10 01:07:04;;;;;;;44.67;24.07;;;;;;;;;;5036950;28;20025;-84
2020/12/10 01:09:31;;;;;;;55.27;27.97;;;;;;;;;;5034753;28;20029;-83
2020/12/10 01:11:57;;;;;;;48.97;25.57;;;;;;;;;;5020011;28;20033;-83
2020/12/10 01:14:24;;;;;;;47.87;27.03;;;;;;;;;;5024907;28;20112;-82
2020/12/10 01:16:50;;;;;;;49.13;25.73;;;;;;;;;;5042000;28;20033;-82
2020/12/10 01:19:16;;;;;;;47.83;28.03;;;;;;;;;;5025576;28;20029;-82
2020/12/10 01:21:42;;;;;;;43.23;21.57;;;;;;;;;;5026027;28;20044;-83
2020/12/10 01:24:10;;;;;;;37.03;19.90;;;;;;;;;;5027434;28;20027;-82
2020/12/10 01:26:36;;;;;;;37.90;18.37;;;;;;;;;;5026579;28;20029;-82
2020/12/10 01:29:02;;;;;;;35.53;21.07;;;;;;;;;;5026660;28;20026;-82
2020/12/10 01:31:29;;;;;;;44.13;23.00;;;;;;;;;;5044580;28;20030;-83
2020/12/10 01:33:55;;;;;;;35.27;19.77;;;;;;;;;;5031558;28;20427;-84
2020/12/10 01:36:21;;;;;;;34.80;18.93;;;;;;;;;;5034392;28;20028;-84
2020/12/10 01:38:48;;;;;;;28.57;16.47;;;;;;;;;;5025668;28;20111;-83
2020/12/10 01:41:14;;;;;;;37.23;22.43;;;;;;;;;;5044101;28;20087;-82
2020/12/10 01:43:41;;;;;;;34.50;19.63;;;;;;;;;;5027667;28;20029;-83
2020/12/10 01:46:07;;;;;;;33.23;17.47;;;;;;;;;;5045957;28;20025;-84
2020/12/10 01:48:33;;;;;;;33.73;20.37;;;;;;;;;;5029975;28;20113;-83
2020/12/10 01:50:59;;;;;;;32.77;17.73;;;;;;;;;;5033159;28;20432;-84
2020/12/10 01:53:26;;;;;;;42.17;22.53;;;;;;;;;;5036835;28;20030;-84
2020/12/10 01:55:52;;;;;;;41.63;27.90;;;;;;;;;;5036019;28;20124;-84
2020/12/10 01:58:18;;;;;;;46.33;24.70;;;;;;;;;;5034750;28;20021;-83
2020/12/10 02:00:44;;;;;;;37.37;20.60;;;;;;;;;;5029782;28;20140;-82
2020/12/10 02:03:10;;;;;;;44.20;23.33;;;;;;;;;;5029825;28;20025;-83
2020/12/10 02:05:54;;;;;;;46.53;25.27;;;;;;;;;;5050674;28;20108;-84
2020/12/10 02:08:20;;;;;;;47.27;24.87;;;;;;;;;;5055008;28;20028;-84
2020/12/10 02:10:46;;;;;;;40.83;24.77;;;;;;;;;;5055339;28;20053;-85
2020/12/10 02:13:12;;;;;;;38.47;22.53;;;;;;;;;;5054674;28;20026;-84
2020/12/10 02:15:38;;;;;;;35.40;22.37;;;;;;;;;;5054198;28;20025;-85
2020/12/10 02:18:05;;;;;;;42.23;26.43;;;;;;;;;;5053389;28;20017;-83
2020/12/10 02:20:32;;;;;;;26.37;15.40;;;;;;;;;;5034013;28;20105;-85
2020/12/10 02:23:07;;;;;;;36.50;22.67;;;;;;;;;;5050684;28;20021;-84
2020/12/10 02:25:34;;;;;;;39.17;24.50;;;;;;;;;;5034763;28;20072;-84
2020/12/10 02:28:04;;;;;;;38.00;23.03;;;;;;;;;;5027775;28;20029;-83
2020/12/10 02:30:31;;;;;;;34.07;19.77;;;;;;;;;;5024544;28;20037;-84
2020/12/10 02:33:02;;;;;;;34.57;19.10;;;;;;;;;;5026159;28;20377;-83
2020/12/10 02:35:28;;;;;;;32.83;20.23;;;;;;;;;;5026521;28;20072;-83
2020/12/10 02:37:55;;;;;;;42.57;24.00;;;;;;;;;;5044398;28;20025;-83
2020/12/10 02:40:22;;;;;;;34.67;16.47;;;;;;;;;;5027794;28;20038;-82
2020/12/10 02:42:48;;;;;;;34.70;22.10;;;;;;;;;;5045962;28;20028;-83
2020/12/10 02:45:14;;;;;;;42.43;23.50;;;;;;;;;;5035283;28;20025;-84
2020/12/10 02:47:40;;;;;;;33.07;19.67;;;;;;;;;;5053920;28;20089;-83
2020/12/10 02:50:06;;;;;;;28.77;17.40;;;;;;;;;;5052842;28;20056;-85
2020/12/10 02:52:32;;;;;;;31.10;17.73;;;;;;;;;;5038889;28;20056;-83
2020/12/10 02:54:58;;;;;;;29.53;18.23;;;;;;;;;;5032927;28;20045;-83
2020/12/10 02:57:24;;;;;;;26.87;15.13;;;;;;;;;;5052557;28;20504;-83
2020/12/10 02:59:50;;;;;;;19.50;11.57;;;;;;;;;;5038368;28;20037;-84
2020/12/10 03:02:16;;;;;;;28.10;14.57;;;;;;;;;;5036996;28;20029;-84
2020/12/10 03:04:42;;;;;;;25.80;14.83;;;;;;;;;;5055322;28;20025;-83
2020/12/10 03:07:08;;;;;;;26.70;15.50;;;;;;;;;;5039596;28;20075;-84
2020/12/10 03:09:35;;;;;;;26.40;13.97;;;;;;;;;;5037726;28;20056;-83
2020/12/10 03:12:01;;;;;;;28.50;16.27;;;;;;;;;;5031165;28;20124;-83
2020/12/10 03:14:27;;;;;;;27.87;15.07;;;;;;;;;;5031033;28;20112;-83
2020/12/10 03:16:53;;;;;;;34.80;18.73;;;;;;;;;;5052583;28;20052;-83
2020/12/10 03:19:19;;;;;;;16.90;9.47;;;;;;;;;;5036417;28;20022;-84
2020/12/10 03:21:45;;;;;;;24.20;15.07;;;;;;;;;;5055112;28;20017;-83
2020/12/10 03:24:11;;;;;;;23.07;16.07;;;;;;;;;;5036669;28;20034;-84
2020/12/10 03:26:37;;;;;;;21.30;14.90;;;;;;;;;;5045464;28;20030;-83
2020/12/10 03:29:07;;;;;;;24.37;13.97;;;;;;;;;;5029062;28;20068;-84
2020/12/10 03:31:35;;;;;;;21.73;13.80;;;;;;;;;;5047968;28;20462;-83
2020/12/10 03:34:01;;;;;;;22.33;13.90;;;;;;;;;;5030347;28;20037;-81
2020/12/10 03:36:27;;;;;;;25.33;17.23;;;;;;;;;;5046726;28;20029;-82
2020/12/10 03:38:53;;;;;;;23.23;16.53;;;;;;;;;;5047461;28;20025;-82
2020/12/10 03:41:19;;;;;;;20.80;12.80;;;;;;;;;;5016470;28;20064;-84
2020/12/10 03:43:45;;;;;;;21.87;12.60;;;;;;;;;;5029279;28;20089;-82
2020/12/10 03:46:12;;;;;;;25.20;15.60;;;;;;;;;;5027061;28;20029;-82
2020/12/10 03:48:38;;;;;;;21.23;13.57;;;;;;;;;;5046799;28;20069;-83
2020/12/10 03:51:04;;;;;;;15.63;10.03;;;;;;;;;;5028907;28;20025;-83
2020/12/10 03:53:30;;;;;;;28.33;15.60;;;;;;;;;;5028919;28;20032;-82
2020/12/10 03:55:56;;;;;;;25.37;14.50;;;;;;;;;;5030309;28;20025;-82
2020/12/10 03:58:22;;;;;;;22.53;14.37;;;;;;;;;;5029120;28;20053;-82
2020/12/10 04:00:48;;;;;;;20.57;13.80;;;;;;;;;;5034353;28;20045;-82
2020/12/10 04:03:14;;;;;;;24.43;15.60;;;;;;;;;;5039045;28;20025;-82
2020/12/10 04:05:40;;;;;;;25.37;14.13;;;;;;;;;;5020956;28;20121;-83
2020/12/10 04:08:06;;;;;;;28.83;15.23;;;;;;;;;;5050673;28;20025;-82
2020/12/10 04:10:32;;;;;;;21.30;13.53;;;;;;;;;;5051685;28;20036;-83
2020/12/10 04:12:58;;;;;;;22.30;14.00;;;;;;;;;;5054916;28;20082;-84
2020/12/10 04:15:24;;;;;;;22.97;14.37;;;;;;;;;;5038047;28;20022;-83
2020/12/10 04:17:50;;;;;;;18.10;10.27;;;;;;;;;;5038698;28;20020;-84
2020/12/10 04:20:16;;;;;;;19.07;12.13;;;;;;;;;;5022380;28;20087;-83
2020/12/10 04:22:42;;;;;;;16.77;10.53;;;;;;;;;;5035878;28;20029;-82
2020/12/10 04:25:08;;;;;;;15.80;8.57;;;;;;;;;;5032988;28;20029;-83
2020/12/10 04:27:35;;;;;;;19.07;11.83;;;;;;;;;;5037275;28;20033;-84
2020/12/10 04:30:01;;;;;;;17.83;11.40;;;;;;;;;;5056312;28;20115;-84
2020/12/10 04:32:27;;;;;;;21.97;10.73;;;;;;;;;;5021826;28;20044;-83
2020/12/10 04:34:53;;;;;;;20.03;11.57;;;;;;;;;;5037768;28;20033;-84
2020/12/10 04:37:19;;;;;;;19.53;12.33;;;;;;;;;;5027016;28;20171;-83
2020/12/10 04:39:46;;;;;;;21.87;13.07;;;;;;;;;;5042866;28;20040;-82
2020/12/10 04:42:12;;;;;;;18.47;11.73;;;;;;;;;;5008017;28;20030;-83
2020/12/10 04:44:38;;;;;;;29.07;12.60;;;;;;;;;;5026252;28;20017;-82
2020/12/10 04:47:08;;;;;;;18.40;11.73;;;;;;;;;;5024145;28;20022;-82
2020/12/10 04:49:34;;;;;;;18.60;11.97;;;;;;;;;;5044931;28;20137;-82
2020/12/10 04:52:01;;;;;;;20.87;12.50;;;;;;;;;;5044218;28;20036;-82
2020/12/10 04:54:27;;;;;;;17.53;11.50;;;;;;;;;;5027599;28;20063;-82
2020/12/10 04:56:53;;;;;;;17.37;11.23;;;;;;;;;;5031780;28;20025;-83
2020/12/10 04:59:19;;;;;;;20.27;12.00;;;;;;;;;;5052465;28;20032;-82
2020/12/10 05:01:45;;;;;;;13.83;8.33;;;;;;;;;;5029387;28;20525;-80
2020/12/10 05:04:12;;;;;;;18.07;11.67;;;;;;;;;;5046779;28;20029;-82
2020/12/10 05:06:49;;;;;;;18.57;10.30;;;;;;;;;;5050058;28;20049;-83
2020/12/10 05:09:15;;;;;;;11.27;7.17;;;;;;;;;;5035040;28;20042;-82
2020/12/10 05:11:41;;;;;;;19.13;11.90;;;;;;;;;;5032716;28;20079;-83
2020/12/10 05:14:07;;;;;;;22.10;11.63;;;;;;;;;;5035224;28;20022;-83
2020/12/10 05:16:33;;;;;;;19.43;11.93;;;;;;;;;;5045826;28;20524;-83
2020/12/10 05:19:18;;;;;;;17.50;9.57;;;;;;;;;;5044403;28;20048;-82
2020/12/10 05:22:01;;;;;;;21.73;13.30;;;;;;;;;;5027057;28;20028;-82
2020/12/10 05:24:27;;;;;;;24.23;13.50;;;;;;;;;;5034152;28;20025;-83
2020/12/10 05:27:13;;;;;;;19.57;12.63;;;;;;;;;;5037999;28;20010;-83
2020/12/10 05:29:39;;;;;;;22.57;13.30;;;;;;;;;;5038578;28;20033;-82
2020/12/10 05:32:06;;;;;;;24.40;14.07;;;;;;;;;;5034025;28;20026;-83
2020/12/10 05:34:32;;;;;;;24.20;13.60;;;;;;;;;;5053175;28;20104;-84
2020/12/10 05:36:58;;;;;;;24.17;14.10;;;;;;;;;;5052081;28;20029;-83
2020/12/10 05:39:24;;;;;;;21.90;14.83;;;;;;;;;;5028942;28;20025;-82
2020/12/10 05:41:54;;;;;;;19.40;11.63;;;;;;;;;;5045724;28;20026;-83
2020/12/10 05:44:24;;;;;;;24.73;14.30;;;;;;;;;;5046965;28;20025;-82
2020/12/10 05:47:03;;;;;;;27.43;14.07;;;;;;;;;;5031069;28;20025;-82
2020/12/10 05:49:29;;;;;;;22.57;13.93;;;;;;;;;;5047306;28;20504;-82
2020/12/10 05:52:01;;;;;;;20.07;13.97;;;;;;;;;;5045651;28;20026;-82
2020/12/10 05:54:27;;;;;;;22.10;14.40;;;;;;;;;;5027146;28;20036;-82
2020/12/10 05:56:57;;;;;;;19.70;12.47;;;;;;;;;;5027685;28;20025;-83
2020/12/10 05:59:24;;;;;;;22.07;13.03;;;;;;;;;;5028971;28;20037;-84
2020/12/10 06:01:50;;;;;;;21.13;12.87;;;;;;;;;;5050259;28;20034;-83
2020/12/10 06:04:16;;;;;;;19.97;12.63;;;;;;;;;;5051087;28;20037;-83
2020/12/10 06:06:42;;;;;;;21.90;9.17;;;;;;;;;;5032795;28;20026;-83
2020/12/10 06:09:08;;;;;;;19.57;10.73;;;;;;;;;;5030781;28;20029;-84
2020/12/10 06:11:37;;;;;;;20.27;14.03;;;;;;;;;;5050630;28;20052;-83
2020/12/10 06:14:07;;;;;;;23.27;13.67;;;;;;;;;;5034752;28;20072;-83
2020/12/10 06:16:34;;;;;;;21.00;11.97;;;;;;;;;;5035246;28;20056;-82
2020/12/10 06:19:03;;;;;;;20.23;13.67;;;;;;;;;;5034869;28;20056;-84
2020/12/10 06:21:36;;;;;;;25.93;14.80;;;;;;;;;;5052552;28;20044;-83
2020/12/10 06:24:21;;;;;;;22.63;14.07;;;;;;;;;;5034327;28;20064;-82
2020/12/10 06:26:48;;;;;;;22.27;13.25;;;;;;;;;;5036440;28;20056;-84
2020/12/10 06:29:20;;;;;;;23.03;11.27;;;;;;;;;;5033874;28;20022;-82
2020/12/10 06:32:05;;;;;;;15.23;9.60;;;;;;;;;;5029107;28;20029;-82
2020/12/10 06:34:41;;;;;;;25.25;13.13;;;;;;;;;;5048065;28;20408;-82
2020/12/10 06:37:14;;;;;;;22.80;12.90;;;;;;;;;;5051049;28;20109;-82
2020/12/10 06:39:41;;;;;;;23.20;16.53;;;;;;;;;;5052091;28;20037;-83
2020/12/10 06:42:07;;;;;;;19.20;13.23;;;;;;;;;;5032699;28;20052;-82
2020/12/10 06:44:34;;;;;;;19.23;10.57;;;;;;;;;;5028551;28;20053;-82
2020/12/10 06:47:00;;;;;;;22.13;13.67;;;;;;;;;;5028186;28;20025;-82
2020/12/10 06:49:31;;;;;;;24.37;13.83;;;;;;;;;;5021931;28;20096;-82
2020/12/10 06:52:15;;;;;;;21.93;13.87;;;;;;;;;;5024747;28;20460;-81
2020/12/10 06:55:01;;;;;;;18.57;10.40;;;;;;;;;;5026112;28;20041;-84
2020/12/10 06:57:47;;;;;;;21.75;12.95;;;;;;;;;;5025449;28;20117;-82
2020/12/10 07:00:34;;;;;;;20.57;13.07;;;;;;;;;;5025504;28;20030;-81
2020/12/10 07:03:16;;;;;;;20.73;12.73;;;;;;;;;;5026830;28;20470;-82
2020/12/10 07:05:42;;;;;;;18.33;12.07;;;;;;;;;;5025458;28;20052;-82
2020/12/10 07:08:11;;;;;;;22.87;14.47;;;;;;;;;;5029747;28;20085;-83
2020/12/10 07:10:38;;;;;;;21.80;13.23;;;;;;;;;;5028483;28;20084;-83
2020/12/10 07:13:05;;;;;;;21.27;12.27;;;;;;;;;;5031564;28;20022;-83
2020/12/10 07:15:31;;;;;;;25.37;13.60;;;;;;;;;;5031364;28;20092;-84
2020/12/10 07:17:58;;;;;;;20.50;11.30;;;;;;;;;;5010967;28;20069;-83
2020/12/10 07:20:24;;;;;;;21.00;13.07;;;;;;;;;;5012979;28;20037;-83
2020/12/10 07:22:50;;;;;;;19.17;12.97;;;;;;;;;;5025886;28;20037;-82
2020/12/10 07:25:16;;;;;;;20.43;12.87;;;;;;;;;;5025679;28;20026;-83
2020/12/10 07:27:43;;;;;;;21.27;11.60;;;;;;;;;;5010262;28;20030;-82
2020/12/10 07:30:09;;;;;;;23.63;13.97;;;;;;;;;;5030354;28;20030;-83
2020/12/10 07:32:36;;;;;;;19.87;12.87;;;;;;;;;;5030082;28;20033;-82
2020/12/10 07:35:02;;;;;;;20.13;12.70;;;;;;;;;;5028916;28;20026;-82
2020/12/10 07:37:31;;;;;;;22.30;14.13;;;;;;;;;;5023652;28;20036;-80
2020/12/10 07:39:57;;;;;;;26.23;13.90;;;;;;;;;;5010128;28;20045;-81
2020/12/10 07:42:23;;;;;;;22.37;12.27;;;;;;;;;;5025562;28;20050;-81
2020/12/10 07:44:49;;;;;;;22.23;13.77;;;;;;;;;;5029981;28;20037;-82
2020/12/10 07:47:15;;;;;;;19.77;11.70;;;;;;;;;;5029793;28;20026;-81
2020/12/10 07:49:41;;;;;;;19.67;11.50;;;;;;;;;;5012330;28;20139;-81
2020/12/10 07:52:08;;;;;;;23.07;13.20;;;;;;;;;;5026578;28;20087;-81
2020/12/10 07:54:43;;;;;;;18.27;11.00;;;;;;;;;;5026024;28;20022;-82
2020/12/10 07:57:14;;;;;;;18.43;12.30;;;;;;;;;;5030693;28;20071;-84
2020/12/10 07:59:41;;;;;;;19.80;10.90;;;;;;;;;;5031816;28;20084;-82
2020/12/10 08:02:09;;;;;;;18.97;12.57;;;;;;;;;;5033272;28;20053;-83
2020/12/10 08:04:35;;;;;;;21.07;12.07;;;;;;;;;;5028733;28;20417;-81
2020/12/10 08:07:01;;;;;;;24.57;13.53;;;;;;;;;;5026351;28;20036;-82
2020/12/10 08:09:27;;;;;;;20.03;12.53;;;;;;;;;;5025348;28;20076;-82
2020/12/10 08:11:54;;;;;;;20.93;12.53;;;;;;;;;;5026370;28;20382;-81
2020/12/10 08:14:28;;;;;;;24.97;11.90;;;;;;;;;;5028031;28;20380;-82
2020/12/10 08:16:55;;;;;;;21.67;13.67;;;;;;;;;;5028515;28;20022;-82
2020/12/10 08:19:22;;;;;;;21.03;12.13;;;;;;;;;;5028615;28;20093;-83
2020/12/10 08:21:51;;;;;;;22.53;13.00;;;;;;;;;;5032176;28;20052;-82
2020/12/10 08:24:33;;;;;;;19.80;12.67;;;;;;;;;;5030690;28;20048;-84
2020/12/10 08:27:00;;;;;;;17.20;10.73;;;;;;;;;;5030590;28;20110;-84
2020/12/10 08:29:26;;;;;;;22.10;12.07;;;;;;;;;;5025913;28;20025;-82
2020/12/10 08:32:04;;;;;;;22.07;13.40;;;;;;;;;;5027536;28;20026;-82
2020/12/10 08:34:33;;;;;;;21.60;11.57;;;;;;;;;;5027040;28;20022;-82
2020/12/10 08:37:06;;;;;;;26.03;13.23;;;;;;;;;;5027351;28;20046;-82
2020/12/10 08:39:34;;;;;;;18.73;12.63;;;;;;;;;;5024648;28;20378;-81
2020/12/10 08:42:01;;;;;;;22.30;12.53;;;;;;;;;;5024818;28;20041;-82
2020/12/10 08:44:52;;;;;;;22.73;13.20;;;;;;;;;;5023202;28;20382;-81
2020/12/10 08:47:32;;;;;;;25.27;12.57;;;;;;;;;;5027659;28;20478;-82
2020/12/10 08:50:24;;;;;;;19.77;13.57;;;;;;;;;;5025498;28;20089;-82
2020/12/10 08:52:51;;;;;;;19.30;14.00;;;;;;;;;;5029860;28;20044;-81
2020/12/10 08:55:17;;;;;;;22.47;11.63;;;;;;;;;;5033717;28;20112;-82
2020/12/10 08:57:52;;;;;;;17.27;10.67;;;;;;;;;;5029603;28;20026;-83
2020/12/10 09:00:18;;;;;;;20.20;11.60;;;;;;;;;;5033332;28;20030;-82
2020/12/10 09:02:44;;;;;;;20.47;12.80;;;;;;;;;;5030178;28;20022;-82
2020/12/10 09:05:10;;;;;;;15.50;9.43;;;;;;;;;;5022075;28;20049;-82
2020/12/10 09:07:36;;;;;;;27.50;13.33;;;;;;;;;;5006456;28;20064;-82
2020/12/10 09:10:06;;;;;;;23.47;14.00;;;;;;;;;;5022850;28;20409;-82
2020/12/10 09:12:32;;;;;;;23.50;12.03;;;;;;;;;;5022245;28;20033;-82
2020/12/10 09:14:58;;;;;;;18.00;11.83;;;;;;;;;;5021520;28;20037;-81
2020/12/10 09:17:24;;;;;;;21.90;12.53;;;;;;;;;;5005930;28;20038;-82
2020/12/10 09:19:50;;;;;;;20.80;11.53;;;;;;;;;;5022899;28;20034;-82
2020/12/10 09:22:16;;;;;;;16.23;9.60;;;;;;;;;;5025735;28;20036;-83
2020/12/10 09:24:56;;;;;;;16.00;9.87;;;;;;;;;;5028425;28;20113;-83
2020/12/10 09:27:23;;;;;;;17.50;10.37;;;;;;;;;;5025038;28;20022;-82
2020/12/10 09:29:49;;;;;;;18.33;11.50;;;;;;;;;;5026518;28;20065;-83
2020/12/10 09:32:17;;;;;;;18.63;12.10;;;;;;;;;;5024265;28;20030;-81
2020/12/10 09:34:43;;;;;;;18.87;10.83;;;;;;;;;;5021611;28;20028;-82
2020/12/10 09:37:09;;;;;;;19.50;11.60;;;;;;;;;;5024304;28;20112;-82
2020/12/10 09:39:36;;;;;;;18.97;10.37;;;;;;;;;;5024170;28;20073;-81
2020/12/10 09:42:04;;;;;;;22.43;12.73;;;;;;;;;;5026030;28;20046;-83
2020/12/10 09:44:31;;;;;;;17.30;12.10;;;;;;;;;;5026474;28;20033;-83
2020/12/10 09:46:57;;;;;;;17.33;10.97;;;;;;;;;;5012001;28;20034;-84
2020/12/10 09:49:23;;;;;;;19.97;12.07;;;;;;;;;;5038638;28;20060;-82
2020/12/10 09:51:57;;;;;;;21.43;12.17;;;;;;;;;;5029343;28;20056;-82
2020/12/10 09:57:23;;;;;;;21.33;11.30;;;;;;;;;;5050080;28;20040;-83
2020/12/10 09:59:49;;;;;;;20.53;11.20;;;;;;;;;;5036375;28;20034;-85
2020/12/10 10:02:18;;;;;;;19.23;10.37;;;;;;;;;;5037613;28;20017;-83
2020/12/10 10:04:51;;;;;;;20.20;11.77;;;;;;;;;;5036013;28;20056;-83
2020/12/10 10:07:17;;;;;;;23.50;13.03;;;;;;;;;;5036488;28;20025;-83
2020/12/10 10:09:43;;;;;;;19.60;12.07;;;;;;;;;;5036705;28;20033;-84
2020/12/10 10:12:10;;;;;;;22.93;13.10;;;;;;;;;;5020334;28;20116;-83
2020/12/10 10:14:37;;;;;;;19.77;11.00;;;;;;;;;;5049731;28;20056;-83
2020/12/10 10:17:08;;;;;;;22.00;12.57;;;;;;;;;;5050497;28;20017;-82
2020/12/10 10:19:35;;;;;;;22.30;13.10;;;;;;;;;;5031591;28;20432;-84
2020/12/10 10:22:02;;;;;;;15.80;10.00;;;;;;;;;;5033057;28;20044;-81
2020/12/10 10:24:29;;;;;;;20.07;11.00;;;;;;;;;;5036273;28;20047;-83
2020/12/10 10:26:56;;;;;;;19.53;11.60;;;;;;;;;;5054063;28;20025;-82
2020/12/10 10:29:22;;;;;;;19.10;12.10;;;;;;;;;;5020564;28;20064;-83
2020/12/10 10:31:49;;;;;;;18.07;11.37;;;;;;;;;;5037588;28;20029;-84
2020/12/10 10:34:15;;;;;;;18.47;11.20;;;;;;;;;;5031915;28;20178;-83
2020/12/10 10:36:42;;;;;;;16.83;11.20;;;;;;;;;;5035011;28;20092;-83
2020/12/10 10:39:20;;;;;;;14.53;7.63;;;;;;;;;;5048256;28;20034;-83
2020/12/10 10:41:47;;;;;;;20.50;12.50;;;;;;;;;;5031073;28;20045;-83
2020/12/10 10:44:33;;;;;;;19.33;10.90;;;;;;;;;;5053850;28;20029;-84
2020/12/10 10:46:59;;;;;;;23.33;13.17;;;;;;;;;;5020265;28;20084;-82
2020/12/10 10:49:25;;;;;;;18.37;11.40;;;;;;;;;;5030940;28;20057;-83
2020/12/10 10:51:51;;;;;;;20.73;12.53;;;;;;;;;;5015362;28;20469;-83
2020/12/10 10:54:20;;;;;;;19.33;11.70;;;;;;;;;;5031210;28;20040;-83
2020/12/10 10:56:47;;;;;;;19.07;11.03;;;;;;;;;;5050919;28;20060;-83
2020/12/10 10:59:13;;;;;;;19.17;12.93;;;;;;;;;;5036920;28;20025;-84
2020/12/10 11:01:39;;;;;;;24.17;12.23;;;;;;;;;;5022455;28;20068;-85
2020/12/10 11:04:06;;;;;;;19.50;12.17;;;;;;;;;;5037816;28;20026;-82
2020/12/10 11:06:35;;;;;;;23.53;11.93;;;;;;;;;;5020232;28;20094;-82
2020/12/10 11:09:01;;;;;;;20.30;12.30;;;;;;;;;;5036164;28;20036;-82
2020/12/10 11:11:27;;;;;;;18.03;11.23;;;;;;;;;;5033511;28;20040;-81
2020/12/10 11:13:54;;;;;;;25.03;10.53;;;;;;;;;;5032646;28;20026;-84
2020/12/10 11:16:21;;;;;;;18.10;11.37;;;;;;;;;;5048089;28;20037;-83
2020/12/10 11:18:47;;;;;;;24.10;14.27;;;;;;;;;;5031211;28;20026;-83
2020/12/10 11:21:14;;;;;;;15.47;9.70;;;;;;;;;;5052786;28;20400;-84
2020/12/10 11:23:41;;;;;;;17.90;11.63;;;;;;;;;;5035678;28;20029;-84
2020/12/10 11:26:08;;;;;;;16.90;9.80;;;;;;;;;;5033410;28;20056;-83
2020/12/10 11:28:34;;;;;;;21.80;10.10;;;;;;;;;;5036269;28;20033;-84
2020/12/10 11:31:03;;;;;;;15.10;8.50;;;;;;;;;;5034706;28;20029;-83
2020/12/10 11:33:29;;;;;;;23.23;12.23;;;;;;;;;;5035624;28;20100;-83
2020/12/10 11:35:55;;;;;;;19.17;11.10;;;;;;;;;;5033167;28;20036;-84
2020/12/10 11:38:21;;;;;;;22.13;11.67;;;;;;;;;;5033566;28;20040;-83
2020/12/10 11:40:51;;;;;;;22.60;13.57;;;;;;;;;;5046299;28;20053;-83
2020/12/10 11:43:17;;;;;;;16.97;11.30;;;;;;;;;;5012903;28;20061;-83
2020/12/10 11:45:44;;;;;;;17.20;11.03;;;;;;;;;;5012149;28;20057;-82
2020/12/10 11:48:10;;;;;;;21.83;12.80;;;;;;;;;;5030366;28;20021;-82
2020/12/10 11:50:36;;;;;;;20.47;12.60;;;;;;;;;;5012501;28;20033;-82
2020/12/10 11:53:04;;;;;;;17.30;10.33;;;;;;;;;;5045991;28;20021;-82
2020/12/10 11:55:30;;;;;;;19.60;12.27;;;;;;;;;;5029295;28;20030;-82
2020/12/10 11:57:56;;;;;;;15.73;9.63;;;;;;;;;;5028408;28;20500;-82
2020/12/10 12:00:22;;;;;;;19.90;10.63;;;;;;;;;;5031167;28;20034;-83
2020/12/10 12:02:51;;;;;;;20.93;12.67;;;;;;;;;;5033268;28;20089;-84
2020/12/10 12:05:17;;;;;;;22.30;11.83;;;;;;;;;;5052631;28;20040;-83
2020/12/10 12:07:44;;;;;;;18.73;10.87;;;;;;;;;;5011837;28;20030;-82
2020/12/10 12:10:11;;;;;;;16.77;11.50;;;;;;;;;;5027038;28;20037;-83
2020/12/10 12:12:40;;;;;;;20.00;13.00;;;;;;;;;;5026651;28;20041;-82
2020/12/10 12:15:07;;;;;;;17.73;11.97;;;;;;;;;;5028358;28;20026;-83
2020/12/10 12:17:34;;;;;;;13.37;8.40;;;;;;;;;;5047314;28;20051;-84
2020/12/10 12:20:01;;;;;;;21.30;12.80;;;;;;;;;;5029038;28;20037;-83
2020/12/10 12:22:27;;;;;;;18.13;12.03;;;;;;;;;;5029706;28;20544;-83
2020/12/10 12:25:13;;;;;;;17.90;10.27;;;;;;;;;;5031109;28;20025;-83
2020/12/10 12:27:44;;;;;;;16.70;10.40;;;;;;;;;;5034704;28;20092;-84
2020/12/10 12:30:50;;;;;;;17.90;12.07;;;;;;;;;;5053991;28;20487;-83
2020/12/10 12:33:16;;;;;;;15.77;6.93;;;;;;;;;;5052028;28;20033;-84
2020/12/10 12:35:42;;;;;;;18.40;11.40;;;;;;;;;;5036280;28;20037;-83
2020/12/10 12:38:31;;;;;;;18.90;12.37;;;;;;;;;;5047762;28;20029;-83
2020/12/10 12:40:57;;;;;;;18.27;12.03;;;;;;;;;;5033529;28;20121;-84
2020/12/10 12:43:23;;;;;;;23.90;12.00;;;;;;;;;;5034034;28;20389;-84
2020/12/10 12:45:49;;;;;;;18.67;11.40;;;;;;;;;;5030355;28;20025;-84
2020/12/10 12:48:15;;;;;;;18.93;11.10;;;;;;;;;;5012859;28;20037;-84
2020/12/10 12:50:41;;;;;;;20.67;13.20;;;;;;;;;;5046659;28;20038;-83
2020/12/10 12:53:07;;;;;;;17.83;11.20;;;;;;;;;;5027887;28;20056;-83
2020/12/10 12:55:36;;;;;;;18.53;11.93;;;;;;;;;;5013964;28;20029;-83
2020/12/10 12:58:06;;;;;;;19.27;11.50;;;;;;;;;;5049295;28;20026;-84
2020/12/10 13:00:52;;;;;;;12.57;6.33;;;;;;;;;;5046146;28;20045;-84
2020/12/10 13:03:18;;;;;;;17.83;11.97;;;;;;;;;;5032800;28;20036;-84
2020/12/10 13:05:44;;;;;;;21.80;12.70;;;;;;;;;;5033663;28;20057;-83
2020/12/10 13:08:10;;;;;;;16.43;10.07;;;;;;;;;;5035884;28;20093;-83
2020/12/10 13:10:41;;;;;;;17.37;11.23;;;;;;;;;;5021942;28;20033;-82
2020/12/10 13:13:07;;;;;;;11.83;5.87;;;;;;;;;;5023554;28;20033;-85
2020/12/10 13:15:34;;;;;;;16.93;10.10;;;;;;;;;;5020402;28;20030;-84
2020/12/10 13:18:00;;;;;;;17.20;12.27;;;;;;;;;;5037408;28;20036;-84
2020/12/10 13:20:27;;;;;;;22.07;12.00;;;;;;;;;;5028359;28;20038;-82
2020/12/10 13:23:12;;;;;;;16.27;11.27;;;;;;;;;;5034351;28;20093;-83
2020/12/10 13:25:38;;;;;;;17.97;11.67;;;;;;;;;;5016225;28;20044;-83
2020/12/10 13:28:25;;;;;;;18.77;11.83;;;;;;;;;;5017154;28;20021;-84
2020/12/10 13:30:51;;;;;;;18.47;12.13;;;;;;;;;;5052390;28;20405;-83
2020/12/10 13:33:40;;;;;;;19.03;11.90;;;;;;;;;;5018408;28;20033;-83
2020/12/10 13:36:09;;;;;;;17.27;11.83;;;;;;;;;;5053649;28;20016;-81
2020/12/10 13:38:36;;;;;;;19.60;12.10;;;;;;;;;;5053294;28;20029;-83
2020/12/10 13:41:07;;;;;;;13.07;7.03;;;;;;;;;;5054877;28;20033;-81
2020/12/10 13:43:36;;;;;;;20.52;13.07;;;;;;;;;;5039564;28;20037;-83
2020/12/10 13:46:02;;;;;;;19.80;11.93;;;;;;;;;;5037954;28;20025;-83
2020/12/10 13:48:29;;;;;;;15.97;10.80;;;;;;;;;;5034863;28;20065;-82
2020/12/10 13:50:55;;;;;;;16.60;11.47;;;;;;;;;;5051064;28;20025;-82
2020/12/10 13:53:21;;;;;;;18.57;11.70;;;;;;;;;;5018276;28;20060;-82
2020/12/10 13:55:49;;;;;;;20.27;11.30;;;;;;;;;;5049651;28;20052;-82
2020/12/10 13:58:15;;;;;;;20.00;12.47;;;;;;;;;;5031590;28;20034;-82
2020/12/10 14:00:45;;;;;;;22.13;12.97;;;;;;;;;;5027678;28;20402;-82
2020/12/10 14:03:11;;;;;;;21.73;13.13;;;;;;;;;;5045341;28;20025;-81
2020/12/10 14:05:37;;;;;;;18.63;11.53;;;;;;;;;;5046979;28;20026;-82
2020/12/10 14:08:03;;;;;;;17.27;9.50;;;;;;;;;;5010816;28;20122;-81
2020/12/10 14:10:29;;;;;;;18.37;10.77;;;;;;;;;;5029240;28;20087;-83
2020/12/10 14:13:03;;;;;;;21.40;12.30;;;;;;;;;;5019749;28;20040;-84
2020/12/10 14:15:30;;;;;;;20.80;10.53;;;;;;;;;;5039025;28;20051;-82
2020/12/10 14:17:56;;;;;;;20.93;10.70;;;;;;;;;;5052094;28;20036;-83
2020/12/10 14:20:23;;;;;;;19.97;12.60;;;;;;;;;;5035766;28;20030;-82
2020/12/10 14:22:50;;;;;;;18.67;11.77;;;;;;;;;;5026824;28;20059;-83
2020/12/10 14:25:16;;;;;;;17.40;12.40;;;;;;;;;;5012937;28;20051;-82
2020/12/10 14:28:02;;;;;;;19.67;11.53;;;;;;;;;;5046295;28;20029;-82